Aplicació Alertes

Dades de l'estació automàtica Oliana

?
?
Resum diari 22:30 TU
Dades diàries de l'estació meteorològica
Temperatura mitjana 1.4 °C
Temperatura màxima 10.3 °C 13:21 TU
Temperatura mínima -6.9 °C 6:33 TU
Humitat relativa mitjana 68%
Precipitació acumulada 0.0 mm
Ratxa màxima del vent (2 m) 18.4 km/h - 191º 14:16 TU
Irradiació solar global 15.8 MJ/m2

El tram horari està expressat en Temps Universal (TU). Cal sumar una hora en horari d'hivern i dues en horari d'estiu per passar a l'hora oficial.

Oliana

Metadades estació meteorol´gica
Municipi Oliana
Comarca Alt Urgell
Altitud 490 m
Data alta 22.06.2000
Estat actual Operativa
Dades de període
Període
TU
TM
°C
TX
°C
TN
°C
HRM
%
PPT
mm
VVM (2 m)
km/h
DVM (2 m)
graus
VVX (2 m)
km/h
RS
W/m2
00:00 - 00:30 -3.6 -3.3 -3.9 84 0.0 0.7 70 2.5 0
00:30 - 01:00 -4.1 -3.6 -4.4 86 0.0 1.4 75 4.7 0
01:00 - 01:30 -4.3 -3.9 -4.9 87 0.0 1.1 69 3.6 0
01:30 - 02:00 -4.9 -4.7 -5.0 89 0.0 0.7 67 3.6 0
02:00 - 02:30 -4.5 -4.1 -4.9 88 0.0 1.1 94 2.9 0
02:30 - 03:00 -5.0 -4.8 -5.2 90 0.0 0.7 64 3.2 0
03:00 - 03:30 -5.3 -4.8 -5.7 91 0.0 0.7 88 4.0 0
03:30 - 04:00 -5.5 -5.2 -5.7 92 0.0 0.4 65 3.2 0
04:00 - 04:30 -5.8 -5.6 -6.0 93 0.0 0.7 79 2.9 0
04:30 - 05:00 -6.0 -5.9 -6.1 94 0.0 0.4 60 4.0 0
05:00 - 05:30 -6.1 -5.9 -6.3 95 0.0 0.7 73 4.0 0
05:30 - 06:00 -6.2 -5.9 -6.4 95 0.0 0.7 78 5.8 0
06:00 - 06:30 -6.3 -6.0 -6.8 95 0.0 0.7 70 4.0 0
06:30 - 07:00 -6.5 -6.1 -6.9 95 0.0 1.1 123 4.3 7
07:00 - 07:30 -6.2 -5.9 -6.2 95 0.0 1.4 164 6.1 30
07:30 - 08:00 -4.9 -4.0 -6.0 95 0.0 2.2 186 8.3 203
08:00 - 08:30 -3.6 -2.9 -4.0 89 0.0 6.1 184 12.6 291
08:30 - 09:00 -2.2 -0.9 -3.1 83 0.0 6.8 180 11.5 406
09:00 - 09:30 -0.1 0.7 -0.9 75 0.0 7.2 191 13.3 544
09:30 - 10:00 2.2 3.6 0.8 66 0.0 6.8 183 12.2 558
10:00 - 10:30 4.5 5.1 3.7 55 0.0 6.5 187 10.8 555
10:30 - 11:00 5.7 6.6 5.1 50 0.0 6.1 197 10.4 605
11:00 - 11:30 7.2 7.8 6.7 46 0.0 5.4 217 13.0 643
11:30 - 12:00 8.1 8.8 7.4 43 0.0 5.8 208 13.0 671
12:00 - 12:30 8.8 9.4 8.6 40 0.0 7.9 209 16.9 688
12:30 - 13:00 9.5 9.7 9.1 37 0.0 10.1 208 17.3 710
13:00 - 13:30 9.9 10.3 9.5 37 0.0 11.2 207 16.9 709
13:30 - 14:00 9.8 10.3 9.1 36 0.0 10.8 202 16.6 498
14:00 - 14:30 9.4 9.9 8.8 39 0.0 11.5 184 18.4 360
14:30 - 15:00 9.5 9.9 8.8 41 0.0 9.7 192 14.8 422
15:00 - 15:30 9.4 9.8 9.2 42 0.0 10.1 192 16.2 334
15:30 - 16:00 9.3 9.5 9.0 41 0.0 8.3 192 14.4 286
16:00 - 16:30 9.2 9.6 9.0 41 0.0 7.9 188 14.8 191
16:30 - 17:00 8.6 9.0 8.3 42 0.0 8.6 180 14.4 98
17:00 - 17:30 7.9 8.3 7.6 46 0.0 6.8 179 11.5 31
17:30 - 18:00 6.9 7.6 6.1 51 0.0 3.6 151 9.7 2
18:00 - 18:30 4.9 5.9 4.4 58 0.0 1.4 62 5.0 0
18:30 - 19:00 4.2 4.4 4.2 61 0.0 1.4 50 5.8 0
19:00 - 19:30 3.9 4.2 3.6 61 0.0 1.8 54 7.2 0
19:30 - 20:00 3.0 3.6 2.1 63 0.0 0.7 90 5.4 0
20:00 - 20:30 2.0 2.3 1.7 67 0.0 1.1 81 4.7 0
20:30 - 21:00 1.3 1.6 1.0 69 0.0 0.7 99 4.7 0
21:00 - 21:30 0.3 1.0 -0.3 73 0.0 1.8 60 4.7 0
21:30 - 22:00 -0.1 0.2 -0.4 75 0.0 1.1 65 3.2 0
22:00 - 22:30 -0.6 0.0 -1.3 77 0.0 1.8 82 4.0 0
22:30 - 23:00 -1.3 -0.9 -1.7 82 0.0 0.4 60 2.2 0

Les dades en taronja només han passat un control de qualitat automàtic. Resta pendent la seva validació definitiva.